Marshall Army Air Field Fort Riley(Junction City) US
ICAO: KFRI
IATA: FRI
Category: Medium
Scheduled Services: No

Elevation: 1065 ft
TransAlt. 18000 ft.

Airport Communications:
VFR ADVSY SVC:126.2
KANSAS CITY CNTR:127.35
ASOS:118.375
CTAF:126.2
RANGE CON:40.8
OPS:40.55

KFRI Zoom In..

Runways:

(A) RW 04 length 4503 ft width 100 ft
---- / hdg 44

(B) RW 22 length 4503 ft width 100 ft
---- / hdg 224

Location; KFRI
Day. 20 / Time. 19.56 Zulu
* Altimeter: 29.89
* Temperature: 32° c. 89.6°f.
* Wind from: 090° Speed 08 kn.
Dewpoint: 17° c.
Visibility: 10 Statute Miles.
Clouds: Few 18000 ft.
Clouds: Few 2000 ft.

KFRI 201956Z AUTO 09008KT 10SM FEW180 FEW200 32/17 A2989 RMK AO2 SLP110 T03240170


Wind From 090°
Speed 08 kn.

 
 
jpsmedia.com for Web Design worldairports.se 2018   terms of use